Portada
METAR-TAF:

METAR-TAF

Aeroports :

Rarotonga, Illes Cook

latitud: 21-12S, longitud: 159-49W, altitud: 7 m

Observació

L'informe es va fer fa 27 minuts, a les 01:00 UTC
Vent 12 kt del Est
Temperatura 27°C
Humitat 79%
Pressió 1014 hPa
Visibilitat 10 km o més

METAR: NCRG 160100Z AUTO 08012KT 9999 SCT018/// 27/23 Q1014

Hora: 15:27 (01:27 UTC)

Pronòstic

L'informe es va fer fa 2 hores i 16 minuts, a les 23:11 UTC
Pronòstic vàlid del 16 a les 00 UTC al 16 a les 24 UTC
Vent 10 kt del Est/Nord-Est
Visibilitat 10 km o més
Núvols disperses a una alçada de 1800 ft

TAF: NCRG 152311Z 1600/1624 06010KT 9999 SCT018

Observacions i pronòstics meteorològics de més de 4000 aeroports (METAR i TAF).

Les estacions disponibles són els punts grocs i vermells al mapa.

Posi el ratolí al punt desitjat per veure el nom de l'estació.

Feu clic per veure les observacions i els pronòstics meteorològics.

Per canviar el mapa: feu clic els botons verds amb una creu de color negre per apropar; al botó verd amb un guió per allunyar la imatge; o en les fletxes verdes per a mapes adjacents.


METAR-TAF: